Time;durP1;ratioP1;P1;durP2;ratioP2;P2;SDS_P1;SDS_P2;PMS_P1;PMS_P2;Temp;Humidity;BMP_temperature;BMP_pressure;BME280_temperature;BME280_humidity;BME280_pressure;Samples;Min_cycle;Max_cycle;Signal;HPM_P1;HPM_P2
2022/12/12 00:00:44;;;;;;;6.33;2.97;;;14.30;99.90;;;;;;5035950;28;20188;-77
2022/12/12 00:03:10;;;;;;;6.03;2.30;;;14.20;99.90;;;;;;5021999;28;20207;-77
2022/12/12 00:05:39;;;;;;;7.00;2.23;;;14.20;99.90;;;;;;5038963;28;20745;-77
2022/12/12 00:08:05;;;;;;;2.60;1.90;;;14.20;99.90;;;;;;5018425;28;20199;-77
2022/12/12 00:10:33;;;;;;;6.50;2.40;;;14.20;99.90;;;;;;5019481;28;20204;-77
2022/12/12 00:13:00;;;;;;;5.63;2.17;;;14.20;99.90;;;;;;5025944;28;20213;-77
2022/12/12 00:15:27;;;;;;;4.80;1.80;;;14.20;99.90;;;;;;5025078;28;20192;-77
2022/12/12 00:17:55;;;;;;;5.03;2.17;;;14.20;99.90;;;;;;4996072;28;20215;-77
2022/12/12 00:20:23;;;;;;;4.03;1.93;;;14.20;99.90;;;;;;5028376;28;20235;-77
2022/12/12 00:22:50;;;;;;;5.07;3.00;;;14.10;99.90;;;;;;5002259;28;20208;-77
2022/12/12 00:25:17;;;;;;;6.43;3.70;;;14.00;99.90;;;;;;5027549;28;20189;-77
2022/12/12 00:27:45;;;;;;;4.03;3.10;;;14.00;99.90;;;;;;5035398;28;20191;-77
2022/12/12 00:30:12;;;;;;;10.67;2.93;;;14.00;99.90;;;;;;5040945;28;20271;-77
2022/12/12 00:32:39;;;;;;;5.07;2.90;;;13.90;99.90;;;;;;5004903;28;20326;-77
2022/12/12 00:35:06;;;;;;;3.97;2.47;;;13.90;99.90;;;;;;5041826;28;20656;-77
2022/12/12 00:37:33;;;;;;;3.53;2.20;;;13.90;99.90;;;;;;5027014;28;20176;-77
2022/12/12 00:40:00;;;;;;;7.33;2.17;;;13.80;99.90;;;;;;5046832;28;20312;-77
2022/12/12 00:42:27;;;;;;;3.57;2.20;;;13.80;99.90;;;;;;5021884;28;20396;-77
2022/12/12 00:44:57;;;;;;;3.00;1.60;;;13.80;99.90;;;;;;5009016;28;20188;-77
2022/12/12 00:47:23;;;;;;;2.50;1.80;;;13.70;99.90;;;;;;5020390;28;20267;-77
2022/12/12 00:49:49;;;;;;;4.73;1.87;;;13.70;99.90;;;;;;5018700;28;20177;-77
2022/12/12 00:52:16;;;;;;;5.07;2.23;;;13.70;99.90;;;;;;5025798;28;20657;-77
2022/12/12 00:54:43;;;;;;;5.20;2.27;;;13.60;99.90;;;;;;5021155;28;20653;-77
2022/12/12 00:57:10;;;;;;;2.50;2.10;;;13.60;99.90;;;;;;5033746;28;20245;-77
2022/12/12 00:59:38;;;;;;;4.53;2.00;;;13.60;99.90;;;;;;5028246;28;20196;-77
2022/12/12 01:02:04;;;;;;;6.30;3.30;;;13.60;99.90;;;;;;5040393;28;20193;-77
2022/12/12 01:04:30;;;;;;;5.80;3.57;;;13.50;99.90;;;;;;4997610;28;20208;-77
2022/12/12 01:06:57;;;;;;;7.83;4.27;;;13.50;99.90;;;;;;5005922;28;20184;-78
2022/12/12 01:09:24;;;;;;;5.97;4.00;;;13.50;99.90;;;;;;5028535;28;20279;-77
2022/12/12 01:11:50;;;;;;;8.60;4.10;;;13.40;99.90;;;;;;5034785;28;20214;-77
2022/12/12 01:14:17;;;;;;;7.60;4.23;;;13.40;99.90;;;;;;5012072;28;20184;-77
2022/12/12 01:16:44;;;;;;;6.47;3.80;;;13.40;99.90;;;;;;5027281;28;20234;-77
2022/12/12 01:19:10;;;;;;;9.67;4.30;;;13.30;99.90;;;;;;5034025;28;20192;-77
2022/12/12 01:21:38;;;;;;;5.87;3.53;;;13.20;99.90;;;;;;5022449;28;20195;-77
2022/12/12 01:24:05;;;;;;;7.70;3.70;;;13.00;99.90;;;;;;5031157;28;20301;-78
2022/12/12 01:26:36;;;;;;;7.27;4.03;;;13.00;99.90;;;;;;5015077;28;20195;-77
2022/12/12 01:29:04;;;;;;;9.00;3.13;;;13.00;99.90;;;;;;5029240;28;20573;-77
2022/12/12 01:31:30;;;;;;;5.20;3.40;;;13.00;99.90;;;;;;5038097;28;20666;-77
2022/12/12 01:33:57;;;;;;;7.13;2.77;;;13.00;99.90;;;;;;5012371;28;20219;-77
2022/12/12 01:36:23;;;;;;;5.27;2.47;;;13.10;99.90;;;;;;5029407;28;20278;-78
2022/12/12 01:38:55;;;;;;;5.33;2.87;;;13.10;99.90;;;;;;5042818;28;20204;-77
2022/12/12 01:41:22;;;;;;;7.50;2.80;;;13.10;99.90;;;;;;5007970;28;20703;-77
2022/12/12 01:43:49;;;;;;;8.60;3.10;;;13.00;99.90;;;;;;5048812;28;20208;-77
2022/12/12 01:46:21;;;;;;;6.37;3.20;;;13.10;99.90;;;;;;5009690;28;20245;-77
2022/12/12 01:49:01;;;;;;;3.87;2.40;;;13.10;99.90;;;;;;5012999;28;20561;-77
2022/12/12 01:51:29;;;;;;;4.97;2.43;;;13.00;99.90;;;;;;5042366;28;20279;-76
2022/12/12 01:54:10;;;;;;;6.53;2.20;;;13.10;99.90;;;;;;5025685;28;20192;-77
2022/12/12 01:56:38;;;;;;;5.10;2.10;;;13.10;99.90;;;;;;5029858;28;20237;-77
2022/12/12 01:59:08;;;;;;;2.73;1.83;;;13.10;99.90;;;;;;5025934;28;20276;-77
2022/12/12 02:01:36;;;;;;;7.23;2.10;;;13.10;99.90;;;;;;5022841;28;20196;-77
2022/12/12 02:04:05;;;;;;;4.33;2.07;;;13.20;99.90;;;;;;5031774;28;20204;-77
2022/12/12 02:06:32;;;;;;;3.10;2.07;;;13.20;99.90;;;;;;5008728;28;20315;-77
2022/12/12 02:09:08;;;;;;;5.07;1.97;;;13.20;99.90;;;;;;5019445;28;20192;-77
2022/12/12 02:11:42;;;;;;;5.50;1.90;;;13.10;99.90;;;;;;5036809;28;20194;-78
2022/12/12 02:14:10;;;;;;;4.30;1.90;;;13.10;99.90;;;;;;5017618;28;20215;-77
2022/12/12 02:16:57;;;;;;;6.27;2.00;;;13.00;99.90;;;;;;5025972;28;20269;-77
2022/12/12 02:20:19;;;;;;;4.07;1.70;;;12.90;99.90;;;;;;5032753;28;20266;-77
2022/12/12 02:23:01;;;;;;;4.37;1.73;;;12.90;99.90;;;;;;5044337;28;20219;-77
2022/12/12 02:26:18;;;;;;;3.10;1.70;;;12.90;99.90;;;;;;5028266;28;20264;-77
2022/12/12 02:29:10;;;;;;;4.17;1.67;;;12.80;99.90;;;;;;5027083;28;20183;-77
2022/12/12 02:32:01;;;;;;;3.70;1.43;;;12.80;99.90;;;;;;5022961;28;20185;-77
2022/12/12 02:34:54;;;;;;;3.40;1.53;;;12.80;99.90;;;;;;4991180;28;20221;-77
2022/12/12 02:38:07;;;;;;;3.10;1.50;;;12.80;99.90;;;;;;5004717;28;20603;-77
2022/12/12 02:40:44;;;;;;;4.40;1.60;;;12.70;99.90;;;;;;5029612;28;20191;-77
2022/12/12 02:43:20;;;;;;;7.27;1.93;;;12.70;99.90;;;;;;5006011;28;20219;-77
2022/12/12 02:46:32;;;;;;;6.70;1.97;;;12.60;99.90;;;;;;5029125;28;20252;-77
2022/12/12 02:49:27;;;;;;;2.87;1.80;;;12.60;99.90;;;;;;4974499;28;20196;-77
2022/12/12 02:51:56;;;;;;;4.30;1.87;;;12.60;99.90;;;;;;5034289;28;20215;-77
2022/12/12 02:54:24;;;;;;;7.03;1.90;;;12.60;99.90;;;;;;5015724;28;20184;-77
2022/12/12 02:56:56;;;;;;;3.50;1.90;;;12.60;99.90;;;;;;5010239;28;20279;-77
2022/12/12 02:59:29;;;;;;;2.50;1.77;;;12.60;99.90;;;;;;5042568;28;20216;-77
2022/12/12 03:02:49;;;;;;;4.50;1.60;;;12.50;99.90;;;;;;5029235;28;20233;-77
2022/12/12 03:08:19;;;;;;;4.43;1.70;;;12.50;99.90;;;;;;5008640;28;20247;-77
2022/12/12 03:11:11;;;;;;;4.60;1.80;;;12.50;99.90;;;;;;5017970;28;21447;-77
2022/12/12 03:14:03;;;;;;;6.40;1.90;;;12.40;99.90;;;;;;5026716;28;20547;-77
2022/12/12 03:16:49;;;;;;;4.80;2.10;;;12.50;99.90;;;;;;5025588;28;20196;-77
2022/12/12 03:19:45;;;;;;;7.80;1.83;;;12.50;99.90;;;;;;5028834;28;20642;-77
2022/12/12 03:22:53;;;;;;;3.60;1.70;;;12.50;99.90;;;;;;5028471;28;20177;-77
2022/12/12 03:26:18;;;;;;;2.73;1.77;;;12.50;99.90;;;;;;5045524;28;20283;-77
2022/12/12 03:28:58;;;;;;;3.60;2.10;;;12.50;99.90;;;;;;4991164;28;20200;-77
2022/12/12 03:31:32;;;;;;;2.10;1.80;;;12.50;99.90;;;;;;5037475;28;20966;-77
2022/12/12 03:34:08;;;;;;;5.47;2.17;;;12.50;99.90;;;;;;5026404;28;20187;-77
2022/12/12 03:36:47;;;;;;;4.43;1.90;;;12.40;99.90;;;;;;5026317;28;20265;-77
2022/12/12 03:39:45;;;;;;;4.23;1.93;;;12.50;99.90;;;;;;5025344;28;20199;-77
2022/12/12 03:42:24;;;;;;;4.57;2.13;;;12.50;99.90;;;;;;5015353;28;20192;-77
2022/12/12 03:45:20;;;;;;;4.53;2.17;;;12.50;99.90;;;;;;5027016;28;21137;-77
2022/12/12 03:48:14;;;;;;;7.97;2.27;;;12.50;99.90;;;;;;5031131;28;20748;-77
2022/12/12 03:50:58;;;;;;;4.40;2.00;;;12.50;99.90;;;;;;5022963;28;20188;-77
2022/12/12 03:53:32;;;;;;;8.33;1.90;;;12.50;99.90;;;;;;5024780;28;20194;-77
2022/12/12 03:56:36;;;;;;;5.27;2.07;;;12.60;99.90;;;;;;5025453;28;20215;-77
2022/12/12 03:59:13;;;;;;;4.73;2.00;;;12.60;99.90;;;;;;5020398;28;20184;-77
2022/12/12 04:02:05;;;;;;;4.73;2.00;;;12.60;99.90;;;;;;5023667;28;20189;-77
2022/12/12 04:05:04;;;;;;;4.63;1.83;;;12.60;99.90;;;;;;5019718;28;20212;-77
2022/12/12 04:08:01;;;;;;;8.40;2.13;;;12.60;99.90;;;;;;5005591;28;20184;-77
2022/12/12 04:14:12;;;;;;;4.47;1.90;;;12.60;99.90;;;;;;5022461;28;20188;-77
2022/12/12 04:16:45;;;;;;;4.20;1.90;;;12.60;99.90;;;;;;5022783;28;20196;-77
2022/12/12 04:29:10;;;;;;;7.40;2.70;;;12.80;99.90;;;;;;5014758;28;20582;-77
2022/12/12 04:31:48;;;;;;;5.40;1.80;;;12.90;99.90;;;;;;5005979;28;20196;-77
2022/12/12 04:34:31;;;;;;;8.37;2.10;;;12.90;99.90;;;;;;5028425;28;20706;-77
2022/12/12 04:37:00;;;;;;;5.67;2.50;;;13.00;99.90;;;;;;5006526;28;20275;-77
2022/12/12 04:39:29;;;;;;;8.27;2.50;;;13.00;99.90;;;;;;5033635;28;20172;-77
2022/12/12 04:42:00;;;;;;;7.77;2.17;;;12.90;99.90;;;;;;5027400;28;20211;-77
2022/12/12 04:44:32;;;;;;;10.37;2.90;;;12.90;99.90;;;;;;5023902;28;20218;-77
2022/12/12 04:47:03;;;;;;;7.20;2.23;;;13.00;99.90;;;;;;5024888;28;20184;-77
2022/12/12 04:49:36;;;;;;;5.70;2.10;;;13.00;99.90;;;;;;5041634;28;20196;-77
2022/12/12 04:52:09;;;;;;;7.90;2.00;;;13.00;99.90;;;;;;5040112;28;20299;-77
2022/12/12 04:54:46;;;;;;;5.90;1.90;;;12.90;99.90;;;;;;5031941;28;20219;-77
2022/12/12 04:57:32;;;;;;;9.70;2.43;;;12.90;99.90;;;;;;5030533;28;20238;-77
2022/12/12 04:59:59;;;;;;;4.00;2.20;;;12.90;99.90;;;;;;5031191;28;20188;-77
2022/12/12 05:02:52;;;;;;;4.53;2.13;;;12.90;99.90;;;;;;5022621;28;20188;-77
2022/12/12 05:05:47;;;;;;;3.23;2.13;;;12.90;99.90;;;;;;5023417;28;20935;-77
2022/12/12 05:08:32;;;;;;;6.03;2.33;;;12.90;99.90;;;;;;5026212;28;20314;-77
2022/12/12 05:11:03;;;;;;;5.33;2.30;;;12.80;99.90;;;;;;5020279;28;20650;-78
2022/12/12 05:13:42;;;;;;;4.40;2.10;;;12.80;99.90;;;;;;5041568;28;20684;-76
2022/12/12 05:16:28;;;;;;;12.00;2.50;;;12.70;99.90;;;;;;5020397;28;20669;-77
2022/12/12 05:18:55;;;;;;;8.07;2.30;;;12.70;99.90;;;;;;5026579;28;20195;-77
2022/12/12 05:21:21;;;;;;;5.90;2.67;;;12.70;99.90;;;;;;5028463;28;20258;-77
2022/12/12 05:23:47;;;;;;;4.80;2.30;;;12.80;99.90;;;;;;5028779;28;20216;-77
2022/12/12 05:26:28;;;;;;;9.33;3.23;;;12.80;99.90;;;;;;5049346;28;20191;-77
2022/12/12 05:28:55;;;;;;;7.77;3.10;;;12.80;99.90;;;;;;5004377;28;20338;-77
2022/12/12 05:31:22;;;;;;;6.30;2.90;;;12.90;99.90;;;;;;5008059;28;20199;-77
2022/12/12 05:33:50;;;;;;;7.20;3.00;;;12.90;99.90;;;;;;5016863;28;20326;-77
2022/12/12 05:36:16;;;;;;;7.13;2.70;;;12.90;99.90;;;;;;5030712;28;20184;-77
2022/12/12 05:38:43;;;;;;;8.07;2.93;;;13.00;99.90;;;;;;5029985;28;20271;-77
2022/12/12 05:41:10;;;;;;;8.93;3.23;;;13.00;99.90;;;;;;5029463;28;20192;-77
2022/12/12 05:43:37;;;;;;;5.87;3.17;;;13.10;99.90;;;;;;5025990;28;20676;-77
2022/12/12 05:46:05;;;;;;;7.53;3.23;;;13.10;99.90;;;;;;5043887;28;20718;-77
2022/12/12 05:48:33;;;;;;;10.53;3.47;;;13.20;99.90;;;;;;5045096;28;20176;-78
2022/12/12 05:51:03;;;;;;;7.83;3.40;;;13.30;99.90;;;;;;5028013;28;20306;-77
2022/12/12 05:53:30;;;;;;;9.60;3.87;;;13.20;99.90;;;;;;5036959;28;20235;-77
2022/12/12 05:55:57;;;;;;;9.40;3.90;;;13.30;99.90;;;;;;5023244;28;20632;-78
2022/12/12 05:58:26;;;;;;;6.10;3.70;;;13.50;99.90;;;;;;5006356;28;20737;-77
2022/12/12 06:00:53;;;;;;;5.97;3.83;;;13.60;99.90;;;;;;5017593;28;20545;-77
2022/12/12 06:03:19;;;;;;;9.43;4.67;;;13.60;99.90;;;;;;5025801;28;20214;-77
2022/12/12 06:05:47;;;;;;;9.27;4.97;;;13.70;99.90;;;;;;5027249;28;20184;-78
2022/12/12 06:08:14;;;;;;;9.67;4.37;;;13.80;99.90;;;;;;5038855;28;20199;-77
2022/12/12 06:10:40;;;;;;;10.50;4.97;;;13.90;99.90;;;;;;5054434;28;20281;-77
2022/12/12 06:13:06;;;;;;;10.77;5.00;;;14.10;99.90;;;;;;5012384;28;20661;-78
2022/12/12 06:15:33;;;;;;;8.87;4.93;;;14.30;99.90;;;;;;5032964;28;20199;-77
2022/12/12 06:18:00;;;;;;;7.43;4.53;;;14.40;99.90;;;;;;5039143;28;20192;-77
2022/12/12 06:20:27;;;;;;;10.40;5.03;;;14.40;99.90;;;;;;5025602;28;20207;-77
2022/12/12 06:22:53;;;;;;;6.50;4.87;;;14.40;99.90;;;;;;5021467;28;20228;-77
2022/12/12 06:25:20;;;;;;;9.70;4.90;;;14.40;99.90;;;;;;5025584;28;20191;-77
2022/12/12 06:27:46;;;;;;;9.07;5.03;;;14.40;99.90;;;;;;5021276;28;21095;-77
2022/12/12 06:30:13;;;;;;;8.23;4.97;;;14.30;99.90;;;;;;5022398;28;20193;-77
2022/12/12 06:32:40;;;;;;;10.60;4.80;;;14.30;99.90;;;;;;5023122;28;20311;-77
2022/12/12 06:35:06;;;;;;;8.60;4.93;;;14.30;99.90;;;;;;5021465;28;20179;-77
2022/12/12 06:37:35;;;;;;;13.23;5.27;;;14.40;99.90;;;;;;5000686;28;20685;-77
2022/12/12 06:40:04;;;;;;;8.23;4.97;;;14.40;99.90;;;;;;5021735;28;20672;-77
2022/12/12 06:42:30;;;;;;;8.23;4.60;;;14.30;99.90;;;;;;5030720;28;20899;-77
2022/12/12 06:44:56;;;;;;;8.93;5.20;;;14.40;99.90;;;;;;5013589;28;20212;-78
2022/12/12 06:47:23;;;;;;;10.03;5.80;;;14.40;99.90;;;;;;5014242;28;20184;-78
2022/12/12 06:49:51;;;;;;;11.10;5.50;;;14.50;99.90;;;;;;5018913;28;20600;-77
2022/12/12 06:52:17;;;;;;;8.30;5.20;;;14.60;99.90;;;;;;5008729;28;20574;-77
2022/12/12 06:54:44;;;;;;;8.30;5.60;;;14.60;99.90;;;;;;5019174;28;20708;-77
2022/12/12 06:57:10;;;;;;;9.63;5.27;;;14.70;99.90;;;;;;5034782;28;20200;-77
2022/12/12 06:59:37;;;;;;;6.73;5.13;;;14.70;99.90;;;;;;5024557;28;20278;-78
2022/12/12 07:02:03;;;;;;;8.33;5.13;;;14.70;99.90;;;;;;5037293;28;20191;-77
2022/12/12 07:04:30;;;;;;;7.67;5.13;;;14.80;99.90;;;;;;5042251;28;20225;-78
2022/12/12 07:06:57;;;;;;;9.93;5.53;;;14.90;99.90;;;;;;5025912;28;20727;-77
2022/12/12 07:09:23;;;;;;;9.03;4.93;;;15.00;99.90;;;;;;5024719;28;20628;-77
2022/12/12 07:11:51;;;;;;;11.60;5.10;;;15.00;99.90;;;;;;5045621;28;20184;-77
2022/12/12 07:14:17;;;;;;;9.67;5.03;;;15.10;99.90;;;;;;5026757;28;20204;-77
2022/12/12 07:16:44;;;;;;;7.27;5.03;;;15.10;99.90;;;;;;5017134;28;20192;-77
2022/12/12 07:19:11;;;;;;;8.07;5.13;;;15.20;99.90;;;;;;5023514;28;20250;-77
2022/12/12 07:21:38;;;;;;;6.80;5.27;;;15.20;99.90;;;;;;5004297;28;20259;-77
2022/12/12 07:24:04;;;;;;;10.63;4.93;;;15.10;99.90;;;;;;5022711;28;20723;-77
2022/12/12 07:26:30;;;;;;;11.70;5.77;;;15.20;99.90;;;;;;5033308;28;20682;-77
2022/12/12 07:28:57;;;;;;;9.10;5.50;;;15.20;99.90;;;;;;5027112;28;20645;-77
2022/12/12 07:31:25;;;;;;;10.43;5.40;;;15.20;99.90;;;;;;5037164;28;20188;-77
2022/12/12 07:33:53;;;;;;;13.80;5.60;;;15.40;99.90;;;;;;5035996;28;20649;-78
2022/12/12 07:36:20;;;;;;;12.73;5.83;;;15.50;99.90;;;;;;5030886;28;20180;-78
2022/12/12 07:38:47;;;;;;;11.73;5.33;;;15.50;99.90;;;;;;5029056;28;20246;-77
2022/12/12 07:41:19;;;;;;;9.73;5.47;;;15.60;99.90;;;;;;5002068;28;20189;-78
2022/12/12 07:43:48;;;;;;;12.77;5.70;;;15.60;99.90;;;;;;5027167;28;20295;-77
2022/12/12 07:46:22;;;;;;;7.20;5.40;;;15.70;99.90;;;;;;5035816;28;20184;-77
2022/12/12 07:48:50;;;;;;;12.87;5.43;;;15.70;99.90;;;;;;5000353;28;20187;-77
2022/12/12 07:51:17;;;;;;;12.93;5.40;;;15.80;99.90;;;;;;5046588;28;20193;-77
2022/12/12 07:53:45;;;;;;;10.57;6.07;;;16.00;99.90;;;;;;5028079;28;20195;-77
2022/12/12 07:56:15;;;;;;;8.60;4.93;;;16.10;99.90;;;;;;5028819;28;20550;-77
2022/12/12 07:58:42;;;;;;;7.57;5.40;;;16.10;99.90;;;;;;5001669;28;20655;-77
2022/12/12 08:01:17;;;;;;;16.23;6.00;;;16.30;99.90;;;;;;5023151;28;20218;-77
2022/12/12 08:03:46;;;;;;;10.83;5.30;;;16.40;99.90;;;;;;5019238;28;20294;-77
2022/12/12 08:06:16;;;;;;;8.17;5.77;;;16.50;99.90;;;;;;5039976;28;20630;-77
2022/12/12 08:08:44;;;;;;;13.73;6.07;;;16.50;99.90;;;;;;5025250;28;20601;-77
2022/12/12 08:11:14;;;;;;;12.17;5.70;;;16.60;99.90;;;;;;5025425;28;20920;-77
2022/12/12 08:13:42;;;;;;;10.77;5.47;;;16.60;99.90;;;;;;5012972;28;20565;-77
2022/12/12 08:16:16;;;;;;;9.63;5.87;;;16.60;99.90;;;;;;5030434;28;20210;-78
2022/12/12 08:18:43;;;;;;;9.83;6.17;;;16.60;99.90;;;;;;5020299;28;20215;-77
2022/12/12 08:21:15;;;;;;;10.77;6.07;;;16.60;99.90;;;;;;5056364;28;20187;-78
2022/12/12 08:23:42;;;;;;;13.10;5.97;;;16.70;99.90;;;;;;5021674;28;20212;-78
2022/12/12 08:26:17;;;;;;;15.93;6.80;;;16.70;99.90;;;;;;5040068;28;20230;-77
2022/12/12 08:28:47;;;;;;;9.03;5.90;;;16.70;99.90;;;;;;5038605;28;20192;-78
2022/12/12 08:31:15;;;;;;;8.73;5.53;;;16.60;99.90;;;;;;5010211;28;20266;-77
2022/12/12 08:33:42;;;;;;;11.03;6.40;;;16.60;99.90;;;;;;5053823;28;20184;-78
2022/12/12 08:36:19;;;;;;;13.90;6.50;;;16.60;99.90;;;;;;5020572;28;20221;-78
2022/12/12 08:38:47;;;;;;;12.63;6.30;;;16.60;99.90;;;;;;5010907;28;20188;-77
2022/12/12 08:41:14;;;;;;;13.77;6.17;;;16.70;99.90;;;;;;5009265;28;20309;-78
2022/12/12 08:43:42;;;;;;;11.57;6.20;;;16.70;99.90;;;;;;5025764;28;20673;-77
2022/12/12 08:46:11;;;;;;;10.73;6.20;;;16.70;99.90;;;;;;5028127;28;20542;-77
2022/12/12 08:48:41;;;;;;;10.30;6.40;;;16.70;99.90;;;;;;5007120;28;21806;-77
2022/12/12 08:51:08;;;;;;;9.77;5.77;;;16.90;99.90;;;;;;5028557;28;20599;-77
2022/12/12 08:53:34;;;;;;;10.27;6.43;;;16.90;99.90;;;;;;5046359;28;20603;-77
2022/12/12 08:56:00;;;;;;;14.93;6.90;;;16.80;99.90;;;;;;5041952;28;20196;-77
2022/12/12 08:58:27;;;;;;;12.93;7.57;;;16.90;99.90;;;;;;5028010;28;20189;-77
2022/12/12 09:00:55;;;;;;;12.60;7.23;;;17.00;99.90;;;;;;5020991;28;20188;-77
2022/12/12 09:03:22;;;;;;;11.23;6.43;;;16.90;99.90;;;;;;5033828;28;20311;-77
2022/12/12 09:05:48;;;;;;;11.30;7.20;;;16.90;99.90;;;;;;5019005;28;20192;-78
2022/12/12 09:08:15;;;;;;;8.80;6.60;;;16.80;99.90;;;;;;5007343;28;20557;-77
2022/12/12 09:10:42;;;;;;;12.53;7.03;;;16.80;99.90;;;;;;5039202;28;20193;-77
2022/12/12 09:13:10;;;;;;;11.33;7.20;;;16.70;99.90;;;;;;5020595;28;20203;-77
2022/12/12 09:15:37;;;;;;;12.53;7.77;;;16.70;99.90;;;;;;5038541;28;20215;-78
2022/12/12 09:18:04;;;;;;;11.80;6.50;;;16.70;99.90;;;;;;5023541;28;20220;-77
2022/12/12 09:20:31;;;;;;;14.27;7.77;;;16.70;99.90;;;;;;5011201;28;20211;-77
2022/12/12 09:22:58;;;;;;;13.30;7.70;;;16.70;99.90;;;;;;5006295;28;20271;-78
2022/12/12 09:25:24;;;;;;;11.67;7.40;;;16.70;99.90;;;;;;5025816;28;20637;-78
2022/12/12 09:27:51;;;;;;;15.97;7.70;;;16.80;99.90;;;;;;5040984;28;20640;-77
2022/12/12 09:30:17;;;;;;;11.20;7.23;;;16.80;99.90;;;;;;5023880;28;20981;-78
2022/12/12 09:32:44;;;;;;;10.80;7.50;;;16.80;99.90;;;;;;5027625;28;20674;-78
2022/12/12 09:35:15;;;;;;;13.60;8.40;;;16.80;99.90;;;;;;5031858;28;20257;-77
2022/12/12 09:37:41;;;;;;;19.40;8.40;;;16.90;99.90;;;;;;5028152;28;20193;-78
2022/12/12 09:40:18;;;;;;;14.23;7.90;;;16.90;99.90;;;;;;5025396;28;20219;-78
2022/12/12 09:42:50;;;;;;;13.60;7.93;;;16.90;99.90;;;;;;5027850;28;20191;-77
2022/12/12 09:45:19;;;;;;;12.37;7.97;;;16.90;99.90;;;;;;5008202;28;20733;-77
2022/12/12 09:47:57;;;;;;;15.07;8.60;;;17.00;99.90;;;;;;5021867;28;20294;-78
2022/12/12 09:50:37;;;;;;;15.33;8.20;;;17.10;99.90;;;;;;5022213;28;20601;-78
2022/12/12 09:53:15;;;;;;;13.27;8.33;;;17.20;99.90;;;;;;5038418;28;20188;-78
2022/12/12 09:56:14;;;;;;;11.17;7.83;;;17.30;99.90;;;;;;5024371;28;20279;-77
2022/12/12 09:58:46;;;;;;;18.27;8.20;;;17.30;99.90;;;;;;5028777;28;20380;-78
2022/12/12 10:01:45;;;;;;;14.97;8.13;;;17.40;99.90;;;;;;5014512;28;20212;-78
2022/12/12 10:04:39;;;;;;;10.80;7.87;;;17.40;99.90;;;;;;5035148;28;20240;-78
2022/12/12 10:07:27;;;;;;;11.67;7.70;;;17.40;99.90;;;;;;5023326;28;20183;-78
2022/12/12 10:10:06;;;;;;;14.03;7.50;;;17.40;99.90;;;;;;5031272;28;20207;-78
2022/12/12 10:12:33;;;;;;;15.93;7.37;;;17.40;99.90;;;;;;5035452;28;20197;-77
2022/12/12 10:15:06;;;;;;;13.93;7.80;;;17.40;99.90;;;;;;5001236;28;20194;-78
2022/12/12 10:17:43;;;;;;;12.50;7.87;;;17.40;99.90;;;;;;5020754;28;20195;-78
2022/12/12 10:20:24;;;;;;;19.00;8.07;;;17.40;99.90;;;;;;5006960;28;20192;-77
2022/12/12 10:23:06;;;;;;;15.93;8.07;;;17.50;99.90;;;;;;5024862;28;20189;-77
2022/12/12 10:26:06;;;;;;;14.83;7.70;;;17.70;99.90;;;;;;5010271;28;20188;-78
2022/12/12 10:28:33;;;;;;;21.40;8.60;;;17.80;99.90;;;;;;5016200;28;20188;-78
2022/12/12 10:31:39;;;;;;;11.97;7.30;;;17.90;99.90;;;;;;5020840;28;20192;-78
2022/12/12 10:34:19;;;;;;;14.00;7.37;;;17.90;99.90;;;;;;5028816;28;20262;-78
2022/12/12 10:37:01;;;;;;;17.03;7.50;;;17.80;99.90;;;;;;5001677;28;20208;-78
2022/12/12 10:39:36;;;;;;;14.37;7.73;;;17.90;99.90;;;;;;5025057;28;20283;-78
2022/12/12 10:42:16;;;;;;;12.93;7.67;;;17.90;99.90;;;;;;5011950;28;20827;-78
2022/12/12 10:45:06;;;;;;;16.63;7.60;;;17.90;99.90;;;;;;5010353;28;20205;-78
2022/12/12 10:47:34;;;;;;;13.60;7.90;;;17.90;99.90;;;;;;5041499;28;20592;-78
2022/12/12 10:50:09;;;;;;;19.47;8.40;;;17.80;99.90;;;;;;5012585;28;20184;-78
2022/12/12 10:52:36;;;;;;;14.13;8.23;;;17.90;99.90;;;;;;5009971;28;20242;-78
2022/12/12 10:55:22;;;;;;;13.47;8.50;;;18.00;99.90;;;;;;5011930;28;20191;-78
2022/12/12 10:58:01;;;;;;;16.07;8.20;;;18.10;99.90;;;;;;5041582;28;20187;-78
2022/12/12 11:00:36;;;;;;;12.35;8.02;;;18.10;99.90;;;;;;5025152;28;20283;-78
2022/12/12 11:03:34;;;;;;;14.50;7.95;;;18.20;99.90;;;;;;5021585;28;20190;-78
2022/12/12 11:06:06;;;;;;;13.07;6.97;;;18.30;99.90;;;;;;4998877;28;20275;-78
2022/12/12 11:08:36;;;;;;;9.25;6.43;;;18.40;99.90;;;;;;5029164;28;20642;-78
2022/12/12 11:11:18;;;;;;;15.35;7.18;;;18.20;99.90;;;;;;5024189;28;20721;-78
2022/12/12 11:14:01;;;;;;;10.23;6.03;;;18.00;99.90;;;;;;5033853;28;20672;-78
2022/12/12 11:16:42;;;;;;;15.77;6.27;;;17.80;99.90;;;;;;5016974;28;20226;-77
2022/12/12 11:19:37;;;;;;;18.40;7.40;;;17.70;99.90;;;;;;4993846;28;20192;-78
2022/12/12 11:22:05;;;;;;;16.30;7.27;;;17.60;99.90;;;;;;5015794;28;20197;-78
2022/12/12 11:24:33;;;;;;;12.53;7.73;;;17.60;99.90;;;;;;5037325;28;20208;-77
2022/12/12 11:27:06;;;;;;;15.53;7.30;;;17.70;99.90;;;;;;5008752;28;20665;-78
2022/12/12 11:29:52;;;;;;;11.20;6.90;;;17.80;99.90;;;;;;5017360;28;20292;-78
2022/12/12 11:32:41;;;;;;;17.60;8.47;;;17.80;99.90;;;;;;5007609;28;20226;-78
2022/12/12 11:35:36;;;;;;;14.87;8.00;;;17.80;99.90;;;;;;5014215;28;20227;-78
2022/12/12 11:38:52;;;;;;;15.37;7.73;;;17.90;99.90;;;;;;5035422;28;20298;-78
2022/12/12 11:41:19;;;;;;;15.70;7.90;;;17.90;99.90;;;;;;5009228;28;20549;-78
2022/12/12 11:43:48;;;;;;;14.77;7.70;;;17.90;99.90;;;;;;5023408;28;20653;-78
2022/12/12 11:46:14;;;;;;;17.20;7.90;;;17.90;99.90;;;;;;5025821;28;20176;-78
2022/12/12 11:48:52;;;;;;;15.57;8.13;;;17.90;99.90;;;;;;5015826;28;20193;-78
2022/12/12 11:51:38;;;;;;;16.33;7.93;;;17.90;99.90;;;;;;5032339;28;20181;-78
2022/12/12 11:54:29;;;;;;;15.23;8.20;;;18.00;99.90;;;;;;5015615;28;20603;-78
2022/12/12 11:57:10;;;;;;;13.80;7.90;;;18.10;99.90;;;;;;5025659;28;20661;-78
2022/12/12 12:00:16;;;;;;;13.27;7.87;;;18.10;99.90;;;;;;5018308;28;20560;-78
2022/12/12 12:03:39;;;;;;;12.70;8.43;;;18.10;99.90;;;;;;5005431;28;20275;-78
2022/12/12 12:06:11;;;;;;;10.33;7.67;;;18.00;99.90;;;;;;4994783;28;20224;-78
2022/12/12 12:08:56;;;;;;;19.93;8.23;;;17.80;99.90;;;;;;5032392;28;20241;-78
2022/12/12 12:12:01;;;;;;;12.43;8.07;;;17.70;99.90;;;;;;5033509;28;20180;-78
2022/12/12 12:14:45;;;;;;;13.00;8.10;;;17.60;99.90;;;;;;4944898;29;20205;-78
2022/12/12 12:18:01;;;;;;;21.23;8.60;;;17.60;99.90;;;;;;5018527;28;20223;-78
2022/12/12 12:21:12;;;;;;;14.27;8.10;;;17.40;99.90;;;;;;4999886;28;20201;-77
2022/12/12 12:24:10;;;;;;;13.97;8.43;;;17.40;99.90;;;;;;5025366;28;20702;-78
2022/12/12 12:27:07;;;;;;;16.23;8.63;;;17.40;99.90;;;;;;5033876;28;20294;-78
2022/12/12 12:29:51;;;;;;;15.13;8.27;;;17.40;99.90;;;;;;4993659;28;20212;-78
2022/12/12 12:32:20;;;;;;;13.37;8.20;;;17.40;99.90;;;;;;5019872;28;20184;-78
2022/12/12 12:35:16;;;;;;;10.53;8.00;;;17.30;99.90;;;;;;5003237;28;20219;-78
2022/12/12 12:38:35;;;;;;;18.10;8.40;;;17.30;99.90;;;;;;5003994;28;20192;-78
2022/12/12 12:41:13;;;;;;;15.37;8.40;;;17.20;99.90;;;;;;5019897;28;20286;-78
2022/12/12 12:43:49;;;;;;;16.47;8.53;;;17.20;99.90;;;;;;5035465;28;20208;-78
2022/12/12 12:46:59;;;;;;;16.00;8.53;;;17.10;99.90;;;;;;5002569;28;20187;-78
2022/12/12 12:49:43;;;;;;;17.13;8.87;;;17.10;99.90;;;;;;5019069;28;20552;-78
2022/12/12 12:52:20;;;;;;;13.73;8.30;;;17.00;99.90;;;;;;5000309;28;20181;-78
2022/12/12 12:54:51;;;;;;;13.50;9.10;;;17.00;99.90;;;;;;5002364;28;20185;-78
2022/12/12 12:57:30;;;;;;;16.80;9.57;;;17.00;99.90;;;;;;5022230;28;20207;-77
2022/12/12 13:00:25;;;;;;;12.07;8.50;;;16.90;99.90;;;;;;5035764;28;20686;-78
2022/12/12 13:02:57;;;;;;;13.23;8.63;;;16.90;99.90;;;;;;5012332;28;20192;-78
2022/12/12 13:05:39;;;;;;;11.77;8.80;;;16.90;99.90;;;;;;5028685;28;20693;-78
2022/12/12 13:08:43;;;;;;;13.83;8.77;;;16.90;99.90;;;;;;5016751;28;20200;-77
2022/12/12 13:11:32;;;;;;;17.00;9.00;;;16.90;99.90;;;;;;5008862;28;20183;-78
2022/12/12 13:14:15;;;;;;;16.27;9.23;;;16.80;99.90;;;;;;5021578;28;20188;-78
2022/12/12 13:16:43;;;;;;;14.50;9.40;;;16.80;99.90;;;;;;5019665;28;20527;-78
2022/12/12 13:19:32;;;;;;;17.43;9.23;;;16.80;99.90;;;;;;5025104;28;20633;-78
2022/12/12 13:22:08;;;;;;;18.57;9.63;;;16.80;99.90;;;;;;5030164;28;20229;-78
2022/12/12 13:24:54;;;;;;;12.53;8.93;;;16.70;99.90;;;;;;5002799;28;20208;-78
2022/12/12 13:27:44;;;;;;;16.70;9.47;;;16.70;99.90;;;;;;5027096;28;20548;-78
2022/12/12 13:30:41;;;;;;;16.23;10.33;;;16.60;99.90;;;;;;5019199;28;20222;-77
2022/12/12 13:33:28;;;;;;;15.33;10.03;;;16.60;99.90;;;;;;5011606;28;20266;-78
2022/12/12 13:36:13;;;;;;;16.80;10.83;;;16.60;99.90;;;;;;4993920;28;20184;-78
2022/12/12 13:38:48;;;;;;;14.60;9.70;;;16.60;99.90;;;;;;5000081;28;20274;-78
2022/12/12 13:41:15;;;;;;;15.17;10.27;;;16.60;99.90;;;;;;5027643;28;20338;-78
2022/12/12 13:43:48;;;;;;;16.70;10.47;;;16.60;99.90;;;;;;5023187;28;20212;-78